Newland, NC

11:33 AM EDT on September 22, 2014 (GMT -0400)
Tiger Ridge - Yellow Mountain | Change Station
CLOSE
Current Station
Personal Weather Station
Location: Newland, NC
Elevation: 4692 ft
Nearby Weather Stations

Elev 4692 ft 36.10 °N, 82.01 °W | Updated 1 second ago

Clear
Clear
57.5 °F
Feels Like 57.5 °F
N
0.0
Wind Variable Wind from WSW
Gusts 4.0 mph

Today
High -- | Low -- °F
--% Chance of Precip.
Yesterday
High -- | Low -- °F
Precip. -- in
7:15 AM 7:24 PM
Waning Crescent, 2% visible
Pressure 30.14 in
Visibility 10.0 miles
Clouds Clear
Dew Point 45 °F
Humidity 63%
Rainfall 0.00 in
Snow Depth Not available.
UV 6 out of 12
Pollen 5.20 out of 12
Air Quality Not available.
Flu Activity Not available.
METAR KTNB 221515Z AUTO 30015G25KT 10SM CLR 14/06 A3014 RMK AO2 LTG DSNT S T01410061

More Conditions Fewer Conditions

Pressure 30.14 in
Visibility 10.0 miles
Clouds Clear
Dew Point 45 °F
Humidity 63%
Rainfall 0.00 in
Snow Depth Not available.
UV 6 out of 12
Pollen 5.20 out of 12
Air Quality Not available.
Flu Activity Not available.
METAR KTNB 221515Z AUTO 30015G25KT 10SM CLR 14/06 A3014 RMK AO2 LTG DSNT S T01410061

More Conditions Fewer Conditions

10-Day Weather Forecast

Almanac

Astronomy

Sep. 22, 2014 Rise Set
Actual Time 7:15 AM EDT 7:24 PM EDT
Civil Twilight 6:50 AM EDT 7:50 PM EDT
Nautical Twilight 6:20 AM EDT 8:20 PM EDT
Astronomical Twilight 5:49 AM EDT 8:50 PM EDT
Moon 5:45 AM EDT 6:30 PM EDT
Length of Visible Light 13h 00m
Length of Day
12h 08m
Tomorrow will be 2m 16s shorter.
Waning Crescent, 2% of the Moon is Illuminated
Today
Waning Crescent
Sep 24
New
Oct 1
First Quarter
Oct 8
Full
Oct 15
Last Quarter

Today's Extremes

State Highs State Lows

Community

WunderPhotos

Upload Photos

1,755,464 photos uploaded!

Nearby

Snow Depth

Station Depth Elevation
No new snow has been reported.

Earthquake Activity

City Distance Mag. Time & Date
No recent earthquake activity has been reported nearby.
Minimum magnitude displayed is 2.5.

Coastal Water Temperatures

Place Temperature
No Stations Reporting

Nearby Weather Stations